sensor_id;sensor_type;location;lat;lon;timestamp;P1;durP1;ratioP1;P2;durP2;ratioP2
51451;SDS011;37521;52.020;-1.740;2022-11-28T00:01:35;5.45;;;1.98;;
51451;SDS011;37521;52.020;-1.740;2022-11-28T00:04:05;4.07;;;1.80;;
51451;SDS011;37521;52.020;-1.740;2022-11-28T00:06:34;3.90;;;1.85;;
51451;SDS011;37521;52.020;-1.740;2022-11-28T00:09:03;1.85;;;1.33;;
51451;SDS011;37521;52.020;-1.740;2022-11-28T00:11:32;2.42;;;1.38;;
51451;SDS011;37521;52.020;-1.740;2022-11-28T00:14:00;2.53;;;1.35;;
51451;SDS011;37521;52.020;-1.740;2022-11-28T00:16:30;3.42;;;1.63;;
51451;SDS011;37521;52.020;-1.740;2022-11-28T00:18:59;4.43;;;1.85;;
51451;SDS011;37521;52.020;-1.740;2022-11-28T00:21:28;3.33;;;1.85;;
51451;SDS011;37521;52.020;-1.740;2022-11-28T00:23:59;3.25;;;1.45;;
51451;SDS011;37521;52.020;-1.740;2022-11-28T00:26:28;1.83;;;1.70;;
51451;SDS011;37521;52.020;-1.740;2022-11-28T00:29:00;8.13;;;1.67;;
51451;SDS011;37521;52.020;-1.740;2022-11-28T00:31:31;1.42;;;1.27;;
51451;SDS011;37521;52.020;-1.740;2022-11-28T00:34:01;2.75;;;1.52;;
51451;SDS011;37521;52.020;-1.740;2022-11-28T00:36:29;2.88;;;1.38;;
51451;SDS011;37521;52.020;-1.740;2022-11-28T00:38:58;3.92;;;2.22;;
51451;SDS011;37521;52.020;-1.740;2022-11-28T00:41:27;4.00;;;2.50;;
51451;SDS011;37521;52.020;-1.740;2022-11-28T00:43:59;3.90;;;2.20;;
51451;SDS011;37521;52.020;-1.740;2022-11-28T00:46:28;3.65;;;2.30;;
51451;SDS011;37521;52.020;-1.740;2022-11-28T00:48:58;2.78;;;1.85;;
51451;SDS011;37521;52.020;-1.740;2022-11-28T00:51:27;4.07;;;2.22;;
51451;SDS011;37521;52.020;-1.740;2022-11-28T00:53:57;3.58;;;2.08;;
51451;SDS011;37521;52.020;-1.740;2022-11-28T00:56:28;3.83;;;2.00;;
51451;SDS011;37521;52.020;-1.740;2022-11-28T00:58:57;3.88;;;1.50;;
51451;SDS011;37521;52.020;-1.740;2022-11-28T01:01:28;3.45;;;1.63;;
51451;SDS011;37521;52.020;-1.740;2022-11-28T01:04:00;4.22;;;1.90;;
51451;SDS011;37521;52.020;-1.740;2022-11-28T01:06:30;2.92;;;2.45;;
51451;SDS011;37521;52.020;-1.740;2022-11-28T01:09:00;3.95;;;1.88;;
51451;SDS011;37521;52.020;-1.740;2022-11-28T01:11:31;2.17;;;1.98;;
51451;SDS011;37521;52.020;-1.740;2022-11-28T01:14:00;6.40;;;2.17;;
51451;SDS011;37521;52.020;-1.740;2022-11-28T01:16:28;3.13;;;1.80;;
51451;SDS011;37521;52.020;-1.740;2022-11-28T01:18:58;3.10;;;1.60;;
51451;SDS011;37521;52.020;-1.740;2022-11-28T01:21:27;2.55;;;1.33;;
51451;SDS011;37521;52.020;-1.740;2022-11-28T01:23:55;4.72;;;1.60;;
51451;SDS011;37521;52.020;-1.740;2022-11-28T01:26:25;2.65;;;1.80;;
51451;SDS011;37521;52.020;-1.740;2022-11-28T01:28:55;1.23;;;1.05;;
51451;SDS011;37521;52.020;-1.740;2022-11-28T01:31:24;3.17;;;1.23;;
51451;SDS011;37521;52.020;-1.740;2022-11-28T01:33:54;2.08;;;1.00;;
51451;SDS011;37521;52.020;-1.740;2022-11-28T01:36:24;1.35;;;0.98;;
51451;SDS011;37521;52.020;-1.740;2022-11-28T01:39:51;1.05;;;0.80;;
51451;SDS011;37521;52.020;-1.740;2022-11-28T01:42:19;2.53;;;0.93;;
51451;SDS011;37521;52.020;-1.740;2022-11-28T01:47:47;1.63;;;1.38;;
51451;SDS011;37521;52.020;-1.740;2022-11-28T01:50:18;2.22;;;0.90;;
51451;SDS011;37521;52.020;-1.740;2022-11-28T01:52:51;3.00;;;0.88;;
51451;SDS011;37521;52.020;-1.740;2022-11-28T01:55:23;1.52;;;0.90;;
51451;SDS011;37521;52.020;-1.740;2022-11-28T01:57:53;1.50;;;1.05;;
51451;SDS011;37521;52.020;-1.740;2022-11-28T02:00:22;2.10;;;0.95;;
51451;SDS011;37521;52.020;-1.740;2022-11-28T02:02:51;2.03;;;1.33;;
51451;SDS011;37521;52.020;-1.740;2022-11-28T02:05:25;1.95;;;1.33;;
51451;SDS011;37521;52.020;-1.740;2022-11-28T02:07:54;1.52;;;1.30;;
51451;SDS011;37521;52.020;-1.740;2022-11-28T02:10:24;1.02;;;0.80;;
51451;SDS011;37521;52.020;-1.740;2022-11-28T02:13:00;1.00;;;0.95;;
51451;SDS011;37521;52.020;-1.740;2022-11-28T02:15:41;2.63;;;1.15;;
51451;SDS011;37521;52.020;-1.740;2022-11-28T02:18:28;1.10;;;0.70;;
51451;SDS011;37521;52.020;-1.740;2022-11-28T02:21:11;1.30;;;1.02;;
51451;SDS011;37521;52.020;-1.740;2022-11-28T02:27:00;2.25;;;0.90;;
51451;SDS011;37521;52.020;-1.740;2022-11-28T02:29:44;3.10;;;1.17;;
51451;SDS011;37521;52.020;-1.740;2022-11-28T02:32:35;1.42;;;0.80;;
51451;SDS011;37521;52.020;-1.740;2022-11-28T02:35:16;2.13;;;1.08;;
51451;SDS011;37521;52.020;-1.740;2022-11-28T02:37:48;1.15;;;1.08;;
51451;SDS011;37521;52.020;-1.740;2022-11-28T02:40:25;0.63;;;0.63;;
51451;SDS011;37521;52.020;-1.740;2022-11-28T02:43:04;0.73;;;0.73;;
51451;SDS011;37521;52.020;-1.740;2022-11-28T02:45:40;1.00;;;0.93;;
51451;SDS011;37521;52.020;-1.740;2022-11-28T02:48:17;1.20;;;1.20;;
51451;SDS011;37521;52.020;-1.740;2022-11-28T02:50:52;5.57;;;1.20;;
51451;SDS011;37521;52.020;-1.740;2022-11-28T02:53:25;2.28;;;1.38;;
51451;SDS011;37521;52.020;-1.740;2022-11-28T02:55:57;1.13;;;1.00;;
51451;SDS011;37521;52.020;-1.740;2022-11-28T02:58:26;2.95;;;0.85;;
51451;SDS011;37521;52.020;-1.740;2022-11-28T03:00:55;3.28;;;1.30;;
51451;SDS011;37521;52.020;-1.740;2022-11-28T03:03:27;2.30;;;1.58;;
51451;SDS011;37521;52.020;-1.740;2022-11-28T03:06:21;2.72;;;1.30;;
51451;SDS011;37521;52.020;-1.740;2022-11-28T03:09:03;2.92;;;1.17;;
51451;SDS011;37521;52.020;-1.740;2022-11-28T03:11:46;2.50;;;0.95;;
51451;SDS011;37521;52.020;-1.740;2022-11-28T03:14:23;1.15;;;0.93;;
51451;SDS011;37521;52.020;-1.740;2022-11-28T03:17:00;4.22;;;1.00;;
51451;SDS011;37521;52.020;-1.740;2022-11-28T03:19:41;2.80;;;1.00;;
51451;SDS011;37521;52.020;-1.740;2022-11-28T03:22:17;2.15;;;1.02;;
51451;SDS011;37521;52.020;-1.740;2022-11-28T03:24:53;1.63;;;0.60;;
51451;SDS011;37521;52.020;-1.740;2022-11-28T03:27:28;2.13;;;1.00;;
51451;SDS011;37521;52.020;-1.740;2022-11-28T03:30:03;2.20;;;1.08;;
51451;SDS011;37521;52.020;-1.740;2022-11-28T03:32:36;2.03;;;0.85;;
51451;SDS011;37521;52.020;-1.740;2022-11-28T03:35:08;1.20;;;1.02;;
51451;SDS011;37521;52.020;-1.740;2022-11-28T03:37:41;2.70;;;1.73;;
51451;SDS011;37521;52.020;-1.740;2022-11-28T03:40:15;2.75;;;0.90;;
51451;SDS011;37521;52.020;-1.740;2022-11-28T03:42:47;0.95;;;0.95;;
51451;SDS011;37521;52.020;-1.740;2022-11-28T03:45:22;4.55;;;0.80;;
51451;SDS011;37521;52.020;-1.740;2022-11-28T03:47:59;2.42;;;1.42;;
51451;SDS011;37521;52.020;-1.740;2022-11-28T03:50:33;2.67;;;1.20;;
51451;SDS011;37521;52.020;-1.740;2022-11-28T03:53:08;1.45;;;0.68;;
51451;SDS011;37521;52.020;-1.740;2022-11-28T03:55:44;4.38;;;1.05;;
51451;SDS011;37521;52.020;-1.740;2022-11-28T03:58:21;0.93;;;0.63;;
51451;SDS011;37521;52.020;-1.740;2022-11-28T04:00:56;2.97;;;1.10;;
51451;SDS011;37521;52.020;-1.740;2022-11-28T04:03:32;1.17;;;1.00;;
51451;SDS011;37521;52.020;-1.740;2022-11-28T04:06:12;1.48;;;1.00;;
51451;SDS011;37521;52.020;-1.740;2022-11-28T04:08:47;4.13;;;1.17;;
51451;SDS011;37521;52.020;-1.740;2022-11-28T04:11:21;2.60;;;1.10;;
51451;SDS011;37521;52.020;-1.740;2022-11-28T04:13:58;3.83;;;1.02;;
51451;SDS011;37521;52.020;-1.740;2022-11-28T04:16:33;1.85;;;1.27;;
51451;SDS011;37521;52.020;-1.740;2022-11-28T04:19:05;2.28;;;1.17;;
51451;SDS011;37521;52.020;-1.740;2022-11-28T04:21:42;1.42;;;1.20;;
51451;SDS011;37521;52.020;-1.740;2022-11-28T04:24:18;1.02;;;0.85;;
51451;SDS011;37521;52.020;-1.740;2022-11-28T04:26:52;1.23;;;0.90;;
51451;SDS011;37521;52.020;-1.740;2022-11-28T04:29:25;0.90;;;0.82;;
51451;SDS011;37521;52.020;-1.740;2022-11-28T04:31:58;1.10;;;1.00;;
51451;SDS011;37521;52.020;-1.740;2022-11-28T04:34:28;1.63;;;0.82;;
51451;SDS011;37521;52.020;-1.740;2022-11-28T04:37:00;2.35;;;0.73;;
51451;SDS011;37521;52.020;-1.740;2022-11-28T04:39:35;1.35;;;0.70;;
51451;SDS011;37521;52.020;-1.740;2022-11-28T04:42:07;2.05;;;0.98;;
51451;SDS011;37521;52.020;-1.740;2022-11-28T04:44:40;1.33;;;0.88;;
51451;SDS011;37521;52.020;-1.740;2022-11-28T04:47:13;0.82;;;0.82;;
51451;SDS011;37521;52.020;-1.740;2022-11-28T04:49:42;2.30;;;0.73;;
51451;SDS011;37521;52.020;-1.740;2022-11-28T04:52:13;1.42;;;0.77;;
51451;SDS011;37521;52.020;-1.740;2022-11-28T04:54:49;1.45;;;1.13;;
51451;SDS011;37521;52.020;-1.740;2022-11-28T04:57:23;3.90;;;0.95;;
51451;SDS011;37521;52.020;-1.740;2022-11-28T05:02:25;1.55;;;0.88;;
51451;SDS011;37521;52.020;-1.740;2022-11-28T05:04:55;1.88;;;0.95;;
51451;SDS011;37521;52.020;-1.740;2022-11-28T05:07:25;2.90;;;1.30;;
51451;SDS011;37521;52.020;-1.740;2022-11-28T05:09:53;3.60;;;0.90;;
51451;SDS011;37521;52.020;-1.740;2022-11-28T05:12:23;1.20;;;0.88;;
51451;SDS011;37521;52.020;-1.740;2022-11-28T05:14:51;1.70;;;1.13;;
51451;SDS011;37521;52.020;-1.740;2022-11-28T05:17:19;4.50;;;0.98;;
51451;SDS011;37521;52.020;-1.740;2022-11-28T05:19:47;3.25;;;1.08;;
51451;SDS011;37521;52.020;-1.740;2022-11-28T05:22:15;2.72;;;0.85;;
51451;SDS011;37521;52.020;-1.740;2022-11-28T05:24:45;3.25;;;1.00;;
51451;SDS011;37521;52.020;-1.740;2022-11-28T05:27:13;4.35;;;1.17;;
51451;SDS011;37521;52.020;-1.740;2022-11-28T05:29:41;1.98;;;1.15;;
51451;SDS011;37521;52.020;-1.740;2022-11-28T05:32:17;2.83;;;0.70;;
51451;SDS011;37521;52.020;-1.740;2022-11-28T05:34:45;0.75;;;0.73;;
51451;SDS011;37521;52.020;-1.740;2022-11-28T05:37:14;3.22;;;0.70;;
51451;SDS011;37521;52.020;-1.740;2022-11-28T05:39:42;1.75;;;0.90;;
51451;SDS011;37521;52.020;-1.740;2022-11-28T05:42:12;3.30;;;0.55;;
51451;SDS011;37521;52.020;-1.740;2022-11-28T05:44:40;1.38;;;0.52;;
51451;SDS011;37521;52.020;-1.740;2022-11-28T05:47:08;1.95;;;0.75;;
51451;SDS011;37521;52.020;-1.740;2022-11-28T05:49:36;5.38;;;0.98;;
51451;SDS011;37521;52.020;-1.740;2022-11-28T05:52:05;1.10;;;0.57;;
51451;SDS011;37521;52.020;-1.740;2022-11-28T05:54:33;2.03;;;0.70;;
51451;SDS011;37521;52.020;-1.740;2022-11-28T05:57:02;2.08;;;0.60;;
51451;SDS011;37521;52.020;-1.740;2022-11-28T05:59:32;1.63;;;0.90;;
51451;SDS011;37521;52.020;-1.740;2022-11-28T06:02:00;0.85;;;0.60;;
51451;SDS011;37521;52.020;-1.740;2022-11-28T06:04:28;0.75;;;0.75;;
51451;SDS011;37521;52.020;-1.740;2022-11-28T06:06:57;2.15;;;0.80;;
51451;SDS011;37521;52.020;-1.740;2022-11-28T06:09:25;1.17;;;0.65;;
51451;SDS011;37521;52.020;-1.740;2022-11-28T06:11:53;1.80;;;1.05;;
51451;SDS011;37521;52.020;-1.740;2022-11-28T06:14:22;2.78;;;0.75;;
51451;SDS011;37521;52.020;-1.740;2022-11-28T06:16:50;2.40;;;1.02;;
51451;SDS011;37521;52.020;-1.740;2022-11-28T06:19:19;1.50;;;0.57;;
51451;SDS011;37521;52.020;-1.740;2022-11-28T06:21:48;1.13;;;0.50;;
51451;SDS011;37521;52.020;-1.740;2022-11-28T06:24:16;1.50;;;0.60;;
51451;SDS011;37521;52.020;-1.740;2022-11-28T06:26:44;0.77;;;0.65;;
51451;SDS011;37521;52.020;-1.740;2022-11-28T06:29:12;2.42;;;0.60;;
51451;SDS011;37521;52.020;-1.740;2022-11-28T06:31:42;2.10;;;0.85;;
51451;SDS011;37521;52.020;-1.740;2022-11-28T06:34:10;0.60;;;0.57;;
51451;SDS011;37521;52.020;-1.740;2022-11-28T06:36:39;1.02;;;0.95;;
51451;SDS011;37521;52.020;-1.740;2022-11-28T06:39:08;1.83;;;0.80;;
51451;SDS011;37521;52.020;-1.740;2022-11-28T06:41:39;3.15;;;0.82;;
51451;SDS011;37521;52.020;-1.740;2022-11-28T06:44:08;1.85;;;0.60;;
51451;SDS011;37521;52.020;-1.740;2022-11-28T06:46:40;5.88;;;1.25;;
51451;SDS011;37521;52.020;-1.740;2022-11-28T06:49:10;2.85;;;1.00;;
51451;SDS011;37521;52.020;-1.740;2022-11-28T06:51:40;1.98;;;0.63;;
51451;SDS011;37521;52.020;-1.740;2022-11-28T06:54:08;3.55;;;0.85;;
51451;SDS011;37521;52.020;-1.740;2022-11-28T06:56:38;3.65;;;1.42;;
51451;SDS011;37521;52.020;-1.740;2022-11-28T06:59:06;1.20;;;1.10;;
51451;SDS011;37521;52.020;-1.740;2022-11-28T07:01:37;3.63;;;1.05;;
51451;SDS011;37521;52.020;-1.740;2022-11-28T07:04:07;4.03;;;1.67;;
51451;SDS011;37521;52.020;-1.740;2022-11-28T07:06:36;3.45;;;0.90;;
51451;SDS011;37521;52.020;-1.740;2022-11-28T07:09:04;0.85;;;0.70;;
51451;SDS011;37521;52.020;-1.740;2022-11-28T07:11:32;1.17;;;0.75;;
51451;SDS011;37521;52.020;-1.740;2022-11-28T07:14:01;3.00;;;1.40;;
51451;SDS011;37521;52.020;-1.740;2022-11-28T07:16:30;0.88;;;0.70;;
51451;SDS011;37521;52.020;-1.740;2022-11-28T07:18:59;1.30;;;1.20;;
51451;SDS011;37521;52.020;-1.740;2022-11-28T07:21:29;2.40;;;1.48;;
51451;SDS011;37521;52.020;-1.740;2022-11-28T07:23:58;4.35;;;1.15;;
51451;SDS011;37521;52.020;-1.740;2022-11-28T07:26:27;1.75;;;0.75;;
51451;SDS011;37521;52.020;-1.740;2022-11-28T07:28:55;0.60;;;0.60;;
51451;SDS011;37521;52.020;-1.740;2022-11-28T07:31:25;1.90;;;0.55;;
51451;SDS011;37521;52.020;-1.740;2022-11-28T07:33:58;2.35;;;0.77;;
51451;SDS011;37521;52.020;-1.740;2022-11-28T07:36:27;1.92;;;1.05;;
51451;SDS011;37521;52.020;-1.740;2022-11-28T07:38:58;2.95;;;1.33;;
51451;SDS011;37521;52.020;-1.740;2022-11-28T07:41:27;4.10;;;1.15;;
51451;SDS011;37521;52.020;-1.740;2022-11-28T07:43:57;4.75;;;1.38;;
51451;SDS011;37521;52.020;-1.740;2022-11-28T07:46:26;1.90;;;0.80;;
51451;SDS011;37521;52.020;-1.740;2022-11-28T07:48:56;1.02;;;0.45;;
51451;SDS011;37521;52.020;-1.740;2022-11-28T07:51:25;0.98;;;0.88;;
51451;SDS011;37521;52.020;-1.740;2022-11-28T07:53:57;2.40;;;0.88;;
51451;SDS011;37521;52.020;-1.740;2022-11-28T07:56:28;1.85;;;0.50;;
51451;SDS011;37521;52.020;-1.740;2022-11-28T07:59:17;1.75;;;0.82;;
51451;SDS011;37521;52.020;-1.740;2022-11-28T08:01:45;2.63;;;0.93;;
51451;SDS011;37521;52.020;-1.740;2022-11-28T08:04:14;1.42;;;0.47;;
51451;SDS011;37521;52.020;-1.740;2022-11-28T08:06:42;0.40;;;0.40;;
51451;SDS011;37521;52.020;-1.740;2022-11-28T08:09:12;2.85;;;0.90;;
51451;SDS011;37521;52.020;-1.740;2022-11-28T08:11:40;0.60;;;0.32;;
51451;SDS011;37521;52.020;-1.740;2022-11-28T08:14:08;1.60;;;0.35;;
51451;SDS011;37521;52.020;-1.740;2022-11-28T08:16:37;3.42;;;0.57;;
51451;SDS011;37521;52.020;-1.740;2022-11-28T08:19:10;3.55;;;1.10;;
51451;SDS011;37521;52.020;-1.740;2022-11-28T08:21:38;2.22;;;0.88;;
51451;SDS011;37521;52.020;-1.740;2022-11-28T08:24:07;2.05;;;0.77;;
51451;SDS011;37521;52.020;-1.740;2022-11-28T08:26:36;0.80;;;0.30;;
51451;SDS011;37521;52.020;-1.740;2022-11-28T08:29:05;1.55;;;0.90;;
51451;SDS011;37521;52.020;-1.740;2022-11-28T08:31:34;4.70;;;1.13;;
51451;SDS011;37521;52.020;-1.740;2022-11-28T08:34:04;2.33;;;0.90;;
51451;SDS011;37521;52.020;-1.740;2022-11-28T08:36:34;1.40;;;0.98;;
51451;SDS011;37521;52.020;-1.740;2022-11-28T08:39:02;2.53;;;1.20;;
51451;SDS011;37521;52.020;-1.740;2022-11-28T08:41:51;3.08;;;1.00;;
51451;SDS011;37521;52.020;-1.740;2022-11-28T08:44:23;2.20;;;0.85;;
51451;SDS011;37521;52.020;-1.740;2022-11-28T08:46:52;1.17;;;0.95;;
51451;SDS011;37521;52.020;-1.740;2022-11-28T08:49:20;1.27;;;0.80;;
51451;SDS011;37521;52.020;-1.740;2022-11-28T08:51:48;1.08;;;0.88;;
51451;SDS011;37521;52.020;-1.740;2022-11-28T08:54:16;1.73;;;0.77;;
51451;SDS011;37521;52.020;-1.740;2022-11-28T08:56:45;3.03;;;1.00;;
51451;SDS011;37521;52.020;-1.740;2022-11-28T08:59:15;1.15;;;1.05;;
51451;SDS011;37521;52.020;-1.740;2022-11-28T09:01:43;1.58;;;0.90;;
51451;SDS011;37521;52.020;-1.740;2022-11-28T09:04:11;2.20;;;0.63;;
51451;SDS011;37521;52.020;-1.740;2022-11-28T09:06:41;1.17;;;0.65;;
51451;SDS011;37521;52.020;-1.740;2022-11-28T09:09:09;2.33;;;0.98;;
51451;SDS011;37521;52.020;-1.740;2022-11-28T09:11:37;3.33;;;1.10;;
51451;SDS011;37521;52.020;-1.740;2022-11-28T09:14:06;2.40;;;0.45;;
51451;SDS011;37521;52.020;-1.740;2022-11-28T09:16:36;2.40;;;1.02;;
51451;SDS011;37521;52.020;-1.740;2022-11-28T09:19:04;0.90;;;0.90;;
51451;SDS011;37521;52.020;-1.740;2022-11-28T09:21:34;1.38;;;0.45;;
51451;SDS011;37521;52.020;-1.740;2022-11-28T09:24:03;1.92;;;0.80;;
51451;SDS011;37521;52.020;-1.740;2022-11-28T09:26:32;1.27;;;0.82;;
51451;SDS011;37521;52.020;-1.740;2022-11-28T09:29:00;0.88;;;0.70;;
51451;SDS011;37521;52.020;-1.740;2022-11-28T09:31:28;0.70;;;0.63;;
51451;SDS011;37521;52.020;-1.740;2022-11-28T09:33:58;0.80;;;0.50;;
51451;SDS011;37521;52.020;-1.740;2022-11-28T09:36:26;3.08;;;0.90;;
51451;SDS011;37521;52.020;-1.740;2022-11-28T09:38:54;0.80;;;0.57;;
51451;SDS011;37521;52.020;-1.740;2022-11-28T09:41:27;5.80;;;1.13;;
51451;SDS011;37521;52.020;-1.740;2022-11-28T09:44:00;0.80;;;0.80;;
51451;SDS011;37521;52.020;-1.740;2022-11-28T09:46:34;1.55;;;1.25;;
51451;SDS011;37521;52.020;-1.740;2022-11-28T09:49:09;2.67;;;1.17;;
51451;SDS011;37521;52.020;-1.740;2022-11-28T09:51:46;3.17;;;1.45;;
51451;SDS011;37521;52.020;-1.740;2022-11-28T09:54:20;1.58;;;1.20;;
51451;SDS011;37521;52.020;-1.740;2022-11-28T09:56:55;3.05;;;1.73;;
51451;SDS011;37521;52.020;-1.740;2022-11-28T09:59:25;1.35;;;1.00;;
51451;SDS011;37521;52.020;-1.740;2022-11-28T10:01:57;2.53;;;1.42;;
51451;SDS011;37521;52.020;-1.740;2022-11-28T10:04:34;1.25;;;0.82;;
51451;SDS011;37521;52.020;-1.740;2022-11-28T10:07:10;2.17;;;0.70;;
51451;SDS011;37521;52.020;-1.740;2022-11-28T10:09:49;1.75;;;0.80;;
51451;SDS011;37521;52.020;-1.740;2022-11-28T10:12:31;2.78;;;0.95;;
51451;SDS011;37521;52.020;-1.740;2022-11-28T10:15:15;1.00;;;0.68;;
51451;SDS011;37521;52.020;-1.740;2022-11-28T10:17:49;1.08;;;0.57;;
51451;SDS011;37521;52.020;-1.740;2022-11-28T10:20:29;1.40;;;0.93;;
51451;SDS011;37521;52.020;-1.740;2022-11-28T10:22:59;2.33;;;0.88;;
51451;SDS011;37521;52.020;-1.740;2022-11-28T10:25:32;4.68;;;0.93;;
51451;SDS011;37521;52.020;-1.740;2022-11-28T10:28:03;1.50;;;0.63;;
51451;SDS011;37521;52.020;-1.740;2022-11-28T10:30:35;4.78;;;0.90;;
51451;SDS011;37521;52.020;-1.740;2022-11-28T10:33:10;3.22;;;1.00;;
51451;SDS011;37521;52.020;-1.740;2022-11-28T10:35:47;2.08;;;0.68;;
51451;SDS011;37521;52.020;-1.740;2022-11-28T10:38:20;0.90;;;0.60;;
51451;SDS011;37521;52.020;-1.740;2022-11-28T10:40:54;1.15;;;0.70;;
51451;SDS011;37521;52.020;-1.740;2022-11-28T10:43:29;0.77;;;0.77;;
51451;SDS011;37521;52.020;-1.740;2022-11-28T10:46:09;2.75;;;0.40;;
51451;SDS011;37521;52.020;-1.740;2022-11-28T10:48:52;1.17;;;0.75;;
51451;SDS011;37521;52.020;-1.740;2022-11-28T10:51:47;1.27;;;0.68;;
51451;SDS011;37521;52.020;-1.740;2022-11-28T10:54:29;1.38;;;1.23;;
51451;SDS011;37521;52.020;-1.740;2022-11-28T10:57:11;1.95;;;0.77;;
51451;SDS011;37521;52.020;-1.740;2022-11-28T10:59:48;1.45;;;0.70;;
51451;SDS011;37521;52.020;-1.740;2022-11-28T11:02:28;1.80;;;0.82;;
51451;SDS011;37521;52.020;-1.740;2022-11-28T11:05:02;3.40;;;0.52;;
51451;SDS011;37521;52.020;-1.740;2022-11-28T11:07:33;2.38;;;0.70;;
51451;SDS011;37521;52.020;-1.740;2022-11-28T11:10:11;3.00;;;0.77;;
51451;SDS011;37521;52.020;-1.740;2022-11-28T11:12:42;4.97;;;1.00;;
51451;SDS011;37521;52.020;-1.740;2022-11-28T11:15:15;1.77;;;0.93;;
51451;SDS011;37521;52.020;-1.740;2022-11-28T11:17:46;1.48;;;0.65;;
51451;SDS011;37521;52.020;-1.740;2022-11-28T11:20:23;1.13;;;0.55;;
51451;SDS011;37521;52.020;-1.740;2022-11-28T11:22:56;2.63;;;0.68;;
51451;SDS011;37521;52.020;-1.740;2022-11-28T11:25:26;0.68;;;0.45;;
51451;SDS011;37521;52.020;-1.740;2022-11-28T11:27:56;1.10;;;0.63;;
51451;SDS011;37521;52.020;-1.740;2022-11-28T11:30:27;7.72;;;1.13;;
51451;SDS011;37521;52.020;-1.740;2022-11-28T11:32:57;3.65;;;1.00;;
51451;SDS011;37521;52.020;-1.740;2022-11-28T11:35:27;1.10;;;0.88;;
51451;SDS011;37521;52.020;-1.740;2022-11-28T11:41:17;0.60;;;0.52;;
51451;SDS011;37521;52.020;-1.740;2022-11-28T11:43:52;3.40;;;0.70;;
51451;SDS011;37521;52.020;-1.740;2022-11-28T11:46:21;1.95;;;0.55;;
51451;SDS011;37521;52.020;-1.740;2022-11-28T11:48:50;6.80;;;1.10;;
51451;SDS011;37521;52.020;-1.740;2022-11-28T11:51:21;1.95;;;0.93;;
51451;SDS011;37521;52.020;-1.740;2022-11-28T11:56:43;0.73;;;0.60;;
51451;SDS011;37521;52.020;-1.740;2022-11-28T11:59:23;0.47;;;0.47;;
51451;SDS011;37521;52.020;-1.740;2022-11-28T12:01:58;2.35;;;1.08;;
51451;SDS011;37521;52.020;-1.740;2022-11-28T12:04:29;3.35;;;0.68;;
51451;SDS011;37521;52.020;-1.740;2022-11-28T12:07:16;1.00;;;0.75;;
51451;SDS011;37521;52.020;-1.740;2022-11-28T12:09:52;3.33;;;0.68;;
51451;SDS011;37521;52.020;-1.740;2022-11-28T12:12:29;2.58;;;0.40;;
51451;SDS011;37521;52.020;-1.740;2022-11-28T12:15:02;2.25;;;0.63;;
51451;SDS011;37521;52.020;-1.740;2022-11-28T12:17:40;2.67;;;0.70;;
51451;SDS011;37521;52.020;-1.740;2022-11-28T12:20:29;1.13;;;0.55;;
51451;SDS011;37521;52.020;-1.740;2022-11-28T12:23:06;2.03;;;0.82;;
51451;SDS011;37521;52.020;-1.740;2022-11-28T12:25:46;1.63;;;0.60;;
51451;SDS011;37521;52.020;-1.740;2022-11-28T12:28:20;1.30;;;0.70;;
51451;SDS011;37521;52.020;-1.740;2022-11-28T12:31:18;1.17;;;0.57;;
51451;SDS011;37521;52.020;-1.740;2022-11-28T12:33:55;0.88;;;0.65;;
51451;SDS011;37521;52.020;-1.740;2022-11-28T12:36:35;2.03;;;0.65;;
51451;SDS011;37521;52.020;-1.740;2022-11-28T12:39:12;2.70;;;0.65;;
51451;SDS011;37521;52.020;-1.740;2022-11-28T12:41:57;3.92;;;1.45;;
51451;SDS011;37521;52.020;-1.740;2022-11-28T12:44:40;2.10;;;0.60;;
51451;SDS011;37521;52.020;-1.740;2022-11-28T12:47:22;2.58;;;0.65;;
51451;SDS011;37521;52.020;-1.740;2022-11-28T12:50:02;3.38;;;0.77;;
51451;SDS011;37521;52.020;-1.740;2022-11-28T12:52:43;1.15;;;0.65;;
51451;SDS011;37521;52.020;-1.740;2022-11-28T12:55:22;1.15;;;0.43;;
51451;SDS011;37521;52.020;-1.740;2022-11-28T12:58:03;1.05;;;0.45;;
51451;SDS011;37521;52.020;-1.740;2022-11-28T13:00:39;4.22;;;0.80;;
51451;SDS011;37521;52.020;-1.740;2022-11-28T13:03:20;0.88;;;0.47;;
51451;SDS011;37521;52.020;-1.740;2022-11-28T13:06:04;3.13;;;0.70;;
51451;SDS011;37521;52.020;-1.740;2022-11-28T13:08:45;2.30;;;0.65;;
51451;SDS011;37521;52.020;-1.740;2022-11-28T13:11:27;1.85;;;0.70;;
51451;SDS011;37521;52.020;-1.740;2022-11-28T13:14:07;0.60;;;0.45;;
51451;SDS011;37521;52.020;-1.740;2022-11-28T13:16:44;0.88;;;0.60;;
51451;SDS011;37521;52.020;-1.740;2022-11-28T13:19:20;1.23;;;0.45;;
51451;SDS011;37521;52.020;-1.740;2022-11-28T13:22:03;1.38;;;0.50;;
51451;SDS011;37521;52.020;-1.740;2022-11-28T13:24:38;1.63;;;0.55;;
51451;SDS011;37521;52.020;-1.740;2022-11-28T13:27:16;1.45;;;1.33;;
51451;SDS011;37521;52.020;-1.740;2022-11-28T13:29:55;1.45;;;0.22;;
51451;SDS011;37521;52.020;-1.740;2022-11-28T13:32:37;2.88;;;0.90;;
51451;SDS011;37521;52.020;-1.740;2022-11-28T13:35:12;0.50;;;0.40;;
51451;SDS011;37521;52.020;-1.740;2022-11-28T13:37:44;3.75;;;0.93;;
51451;SDS011;37521;52.020;-1.740;2022-11-28T13:40:40;1.33;;;0.70;;
51451;SDS011;37521;52.020;-1.740;2022-11-28T13:43:13;0.98;;;0.68;;
51451;SDS011;37521;52.020;-1.740;2022-11-28T13:45:45;0.75;;;0.52;;
51451;SDS011;37521;52.020;-1.740;2022-11-28T13:57:03;0.45;;;0.45;;
51451;SDS011;37521;52.020;-1.740;2022-11-28T13:59:36;2.90;;;0.55;;
51451;SDS011;37521;52.020;-1.740;2022-11-28T14:02:20;2.13;;;0.63;;
51451;SDS011;37521;52.020;-1.740;2022-11-28T14:04:58;0.38;;;0.22;;
51451;SDS011;37521;52.020;-1.740;2022-11-28T14:07:27;0.80;;;0.57;;
51451;SDS011;37521;52.020;-1.740;2022-11-28T14:10:02;0.75;;;0.60;;
51451;SDS011;37521;52.020;-1.740;2022-11-28T14:12:53;2.30;;;0.32;;
51451;SDS011;37521;52.020;-1.740;2022-11-28T14:15:36;2.13;;;0.47;;
51451;SDS011;37521;52.020;-1.740;2022-11-28T14:18:25;1.85;;;0.80;;
51451;SDS011;37521;52.020;-1.740;2022-11-28T14:21:24;1.67;;;0.43;;
51451;SDS011;37521;52.020;-1.740;2022-11-28T14:24:01;1.25;;;0.55;;
51451;SDS011;37521;52.020;-1.740;2022-11-28T14:26:39;3.85;;;0.82;;
51451;SDS011;37521;52.020;-1.740;2022-11-28T14:29:17;3.05;;;0.70;;
51451;SDS011;37521;52.020;-1.740;2022-11-28T14:31:47;3.58;;;0.95;;
51451;SDS011;37521;52.020;-1.740;2022-11-28T14:34:40;3.03;;;0.43;;
51451;SDS011;37521;52.020;-1.740;2022-11-28T14:39:59;1.35;;;0.50;;
51451;SDS011;37521;52.020;-1.740;2022-11-28T14:42:33;4.68;;;0.85;;
51451;SDS011;37521;52.020;-1.740;2022-11-28T14:48:17;2.70;;;0.47;;
51451;SDS011;37521;52.020;-1.740;2022-11-28T14:50:55;1.90;;;0.68;;
51451;SDS011;37521;52.020;-1.740;2022-11-28T14:53:35;1.25;;;0.57;;
51451;SDS011;37521;52.020;-1.740;2022-11-28T14:56:19;1.65;;;0.70;;
51451;SDS011;37521;52.020;-1.740;2022-11-28T14:58:53;2.95;;;0.50;;
51451;SDS011;37521;52.020;-1.740;2022-11-28T15:01:29;1.67;;;0.85;;
51451;SDS011;37521;52.020;-1.740;2022-11-28T15:07:18;0.88;;;0.52;;
51451;SDS011;37521;52.020;-1.740;2022-11-28T15:10:00;1.05;;;0.57;;
51451;SDS011;37521;52.020;-1.740;2022-11-28T15:12:36;0.35;;;0.15;;
51451;SDS011;37521;52.020;-1.740;2022-11-28T15:15:16;2.08;;;0.60;;
51451;SDS011;37521;52.020;-1.740;2022-11-28T15:17:46;0.70;;;0.70;;
51451;SDS011;37521;52.020;-1.740;2022-11-28T15:20:19;3.30;;;0.88;;
51451;SDS011;37521;52.020;-1.740;2022-11-28T15:22:54;3.13;;;1.20;;
51451;SDS011;37521;52.020;-1.740;2022-11-28T15:25:24;1.10;;;0.82;;
51451;SDS011;37521;52.020;-1.740;2022-11-28T15:27:56;2.33;;;0.63;;
51451;SDS011;37521;52.020;-1.740;2022-11-28T15:30:41;0.60;;;0.40;;
51451;SDS011;37521;52.020;-1.740;2022-11-28T15:33:12;0.88;;;0.40;;
51451;SDS011;37521;52.020;-1.740;2022-11-28T15:35:47;2.17;;;0.57;;
51451;SDS011;37521;52.020;-1.740;2022-11-28T15:38:22;1.58;;;0.63;;
51451;SDS011;37521;52.020;-1.740;2022-11-28T15:40:52;1.30;;;0.73;;
51451;SDS011;37521;52.020;-1.740;2022-11-28T15:43:22;6.22;;;1.65;;